PAWI

Details ICAO PAWI (AIN)
Name WAINWRIGHT
Region USA (Alaska)
Timezone America/Anchorage (UTC-9.0)
Plans Departing 5
Arriving 4
Stats Elevation 41 ft / 12 m (AMSL)
Location 70.637998° -159.994757°
Runways 1
Magnetic Variation 12.961° E
Sunrise Unknown / Unknown
Sunset Unknown / Unknown
Advertisement - Login to hide

Runways

ID Width Length Bearing (true) Bearing (mag) Surface Threshold Offset Overrun Length
05 89 ft / 27 m 4,477 ft / 1,365 m 67.44° 54.48° Gravel 0 ft / 0 m 249 ft / 76 m
23 89 ft / 27 m 4,477 ft / 1,365 m 247.48° 234.52° Gravel 0 ft / 0 m 249 ft / 76 m

Map

Weather


0- 5 10 15 20 25 30 35+ Temperature / ° C

Clouds and Precipitation
Forecast for 2017-12-14 18:00 UTC. Updated 24 minutes ago

Ground ~20,000 ft ~40,000 ft Winds

METAR

PAWI 141253Z AUTO 06030KT 1/4SM -SN FZFG VV006 M13/M14 A2977 RMK PK WND 06035/1237 SLP083 P0000 T11331144 TSNO VIA AUTODIAL

TAF

Not found

Frequencies

Recorded 132.25 MHz ASOS
Unicom 122.80 MHz CTAF
Warning: Do not use this data for real-world aviation or navigation. No guarantee of current accuracy is given.